Time;durP1;ratioP1;P1;durP2;ratioP2;P2;SDS_P1;SDS_P2;PMS_P1;PMS_P2;Temp;Humidity;BMP_temperature;BMP_pressure;BME280_temperature;BME280_humidity;BME280_pressure;Samples;Min_cycle;Max_cycle;Signal;HPM_P1;HPM_P2
2021/10/08 00:00:41;;;;;;;4.60;4.20;;;9.30;99.90;;;;;;4877772;29;20238;-71
2021/10/08 00:03:08;;;;;;;4.72;4.25;;;9.30;99.90;;;;;;4865208;29;20207;-71
2021/10/08 00:05:35;;;;;;;5.38;4.88;;;9.30;99.90;;;;;;4859342;29;20239;-71
2021/10/08 00:08:02;;;;;;;4.80;4.30;;;9.40;99.90;;;;;;4858591;29;20215;-70
2021/10/08 00:10:29;;;;;;;4.95;4.30;;;9.40;99.90;;;;;;4858851;29;20236;-70
2021/10/08 00:12:57;;;;;;;4.80;4.40;;;9.40;99.90;;;;;;4858956;29;20211;-71
2021/10/08 00:15:24;;;;;;;5.40;4.90;;;9.40;99.90;;;;;;4858613;29;20580;-71
2021/10/08 00:17:50;;;;;;;6.22;4.80;;;9.40;99.90;;;;;;4858196;29;20680;-71
2021/10/08 00:20:18;;;;;;;6.05;4.30;;;9.40;99.90;;;;;;4858762;29;20211;-71
2021/10/08 00:22:46;;;;;;;5.10;4.65;;;9.40;99.90;;;;;;4858686;29;20203;-70
2021/10/08 00:25:13;;;;;;;5.40;4.90;;;9.40;99.90;;;;;;4858383;29;20235;-71
2021/10/08 00:27:40;;;;;;;5.80;4.22;;;9.40;99.90;;;;;;4858421;29;20211;-71
2021/10/08 00:30:09;;;;;;;4.60;4.13;;;9.40;99.90;;;;;;4858504;29;20215;-71
2021/10/08 00:32:35;;;;;;;4.90;4.40;;;9.40;99.90;;;;;;4858917;29;20211;-71
2021/10/08 00:35:02;;;;;;;4.95;4.50;;;9.40;99.90;;;;;;4858310;29;20227;-71
2021/10/08 00:37:29;;;;;;;4.22;3.83;;;9.30;99.90;;;;;;4857955;29;20209;-71
2021/10/08 00:39:55;;;;;;;4.30;3.90;;;9.30;99.90;;;;;;4858228;29;20219;-71
2021/10/08 00:42:26;;;;;;;4.63;4.22;;;9.30;99.90;;;;;;4858037;29;20581;-71
2021/10/08 00:44:53;;;;;;;4.20;3.80;;;9.30;99.90;;;;;;4858340;29;20231;-71
2021/10/08 00:47:21;;;;;;;5.97;4.07;;;9.30;99.90;;;;;;4857863;29;20283;-71
2021/10/08 00:49:49;;;;;;;5.53;4.10;;;9.20;99.90;;;;;;4858745;29;20829;-71
2021/10/08 00:52:15;;;;;;;4.43;4.00;;;9.10;99.90;;;;;;4858106;29;20601;-71
2021/10/08 00:54:42;;;;;;;4.38;3.95;;;9.00;99.90;;;;;;4858458;29;20228;-71
2021/10/08 00:57:09;;;;;;;5.30;3.85;;;8.90;99.90;;;;;;4857805;29;20215;-71
2021/10/08 00:59:36;;;;;;;6.13;3.60;;;8.90;99.90;;;;;;4858579;29;20220;-71
2021/10/08 01:02:05;;;;;;;4.28;3.85;;;8.70;99.90;;;;;;4858251;29;20244;-70
2021/10/08 01:04:35;;;;;;;4.57;3.92;;;8.70;99.90;;;;;;4858361;29;20259;-71
2021/10/08 01:07:02;;;;;;;4.75;3.80;;;8.70;99.90;;;;;;4857959;29;20214;-71
2021/10/08 01:09:29;;;;;;;4.82;4.20;;;8.60;99.90;;;;;;4857923;29;20676;-71
2021/10/08 01:11:56;;;;;;;4.85;4.28;;;8.50;99.90;;;;;;4858372;29;20212;-71
2021/10/08 01:14:22;;;;;;;3.90;3.50;;;8.50;99.90;;;;;;4857767;29;20223;-71
2021/10/08 01:16:49;;;;;;;4.22;3.85;;;8.40;99.90;;;;;;4857848;29;20211;-71
2021/10/08 01:19:17;;;;;;;4.20;3.67;;;8.50;99.90;;;;;;4858197;29;20218;-71
2021/10/08 01:21:45;;;;;;;4.57;4.07;;;8.50;99.90;;;;;;4858249;29;20203;-71
2021/10/08 01:24:12;;;;;;;3.83;3.53;;;8.50;99.90;;;;;;4857749;29;20263;-71
2021/10/08 01:26:39;;;;;;;3.85;3.55;;;8.40;99.90;;;;;;4857639;29;20208;-71
2021/10/08 01:29:09;;;;;;;4.47;4.07;;;8.30;99.90;;;;;;4858177;29;20208;-71
2021/10/08 01:31:35;;;;;;;3.90;3.60;;;8.30;99.90;;;;;;4858102;29;20240;-71
2021/10/08 01:34:02;;;;;;;4.85;4.45;;;8.20;99.90;;;;;;4858040;29;20228;-71
2021/10/08 01:36:29;;;;;;;4.80;3.95;;;8.10;99.90;;;;;;4857225;29;20211;-71
2021/10/08 01:38:57;;;;;;;5.10;3.90;;;8.10;99.90;;;;;;4858207;29;20566;-71
2021/10/08 01:41:23;;;;;;;5.25;4.45;;;8.00;99.90;;;;;;4857844;29;20204;-71
2021/10/08 01:43:50;;;;;;;4.80;3.85;;;8.00;99.90;;;;;;4857845;29;20218;-71
2021/10/08 01:46:17;;;;;;;5.35;4.50;;;7.90;99.90;;;;;;4857965;29;20588;-71
2021/10/08 01:48:44;;;;;;;4.15;3.85;;;7.90;99.90;;;;;;4858359;29;20211;-71
2021/10/08 01:51:10;;;;;;;4.35;3.95;;;7.90;99.90;;;;;;4858214;29;20208;-71
2021/10/08 01:53:37;;;;;;;4.07;3.75;;;7.90;99.90;;;;;;4861119;29;20215;-72
2021/10/08 01:56:05;;;;;;;4.35;3.95;;;7.80;99.90;;;;;;4861336;29;20923;-72
2021/10/08 01:58:32;;;;;;;4.95;4.35;;;7.80;99.90;;;;;;4861279;29;20234;-71
2021/10/08 02:00:59;;;;;;;4.38;3.92;;;7.80;99.90;;;;;;4861527;29;20200;-72
2021/10/08 02:03:27;;;;;;;5.65;3.90;;;7.80;99.90;;;;;;4860948;29;20219;-71
2021/10/08 02:05:53;;;;;;;5.05;4.15;;;7.80;99.90;;;;;;4860852;29;20280;-71
2021/10/08 02:08:20;;;;;;;4.38;3.97;;;7.80;99.90;;;;;;4861138;29;20718;-71
2021/10/08 02:10:47;;;;;;;4.20;3.90;;;7.70;99.90;;;;;;4861235;29;20219;-71
2021/10/08 02:13:15;;;;;;;5.05;4.65;;;7.70;99.90;;;;;;4860993;29;20582;-71
2021/10/08 02:15:41;;;;;;;4.40;3.90;;;7.70;99.90;;;;;;4860745;29;20230;-71
2021/10/08 02:18:08;;;;;;;4.55;4.15;;;7.70;99.90;;;;;;4861130;29;20214;-71
2021/10/08 02:20:35;;;;;;;5.95;4.13;;;7.60;99.90;;;;;;4861030;29;20328;-71
2021/10/08 02:23:01;;;;;;;5.15;4.65;;;7.60;99.90;;;;;;4861019;29;20616;-71
2021/10/08 02:25:28;;;;;;;4.85;4.45;;;7.60;99.90;;;;;;4860737;29;20228;-71
2021/10/08 02:27:55;;;;;;;5.47;4.50;;;7.60;99.90;;;;;;4860573;29;20219;-71
2021/10/08 02:30:23;;;;;;;5.05;4.32;;;7.60;99.90;;;;;;4860765;29;20216;-71
2021/10/08 02:32:50;;;;;;;6.53;4.57;;;7.50;99.90;;;;;;4860902;29;20208;-71
2021/10/08 02:35:16;;;;;;;4.97;4.45;;;7.50;99.90;;;;;;4860782;29;20231;-71
2021/10/08 02:37:43;;;;;;;4.50;4.10;;;7.50;99.90;;;;;;4860186;29;20215;-71
2021/10/08 02:40:10;;;;;;;5.72;5.00;;;7.50;99.90;;;;;;4860888;29;20212;-71
2021/10/08 02:42:37;;;;;;;5.10;4.55;;;7.40;99.90;;;;;;4860806;29;20222;-70
2021/10/08 02:45:05;;;;;;;4.90;4.25;;;7.40;99.90;;;;;;4860332;29;20232;-71
2021/10/08 02:47:33;;;;;;;5.20;4.57;;;7.40;99.90;;;;;;4860174;29;20226;-71
2021/10/08 02:50:00;;;;;;;4.20;3.80;;;7.40;99.90;;;;;;4860353;29;20210;-70
2021/10/08 02:52:26;;;;;;;4.93;4.53;;;7.40;99.90;;;;;;4860425;29;20220;-71
2021/10/08 02:54:53;;;;;;;4.90;4.50;;;7.30;99.90;;;;;;4860420;29;20228;-70
2021/10/08 02:57:20;;;;;;;5.05;4.55;;;7.30;99.90;;;;;;4859944;29;20702;-71
2021/10/08 02:59:46;;;;;;;5.10;4.70;;;7.30;99.90;;;;;;4860563;29;20234;-71
2021/10/08 03:02:13;;;;;;;6.30;4.80;;;7.30;99.90;;;;;;4860053;29;20208;-70
2021/10/08 03:04:42;;;;;;;4.68;4.20;;;7.30;99.90;;;;;;4859488;29;20318;-71
2021/10/08 03:07:08;;;;;;;5.60;4.10;;;7.30;99.90;;;;;;4859276;29;20587;-70
2021/10/08 03:09:35;;;;;;;8.38;5.60;;;7.30;99.90;;;;;;4860046;29;20581;-70
2021/10/08 03:12:02;;;;;;;5.25;4.75;;;7.20;99.90;;;;;;4859848;29;20233;-71
2021/10/08 03:14:29;;;;;;;5.47;4.60;;;7.20;99.90;;;;;;4859739;29;20598;-70
2021/10/08 03:16:56;;;;;;;4.45;4.05;;;7.20;99.90;;;;;;4859472;29;20214;-70
2021/10/08 03:19:22;;;;;;;5.65;4.50;;;7.20;99.90;;;;;;4859680;29;20672;-70
2021/10/08 03:21:50;;;;;;;5.70;5.10;;;7.20;99.90;;;;;;4859850;29;20242;-70
2021/10/08 03:24:17;;;;;;;5.00;4.50;;;7.20;99.90;;;;;;4859432;29;20235;-71
2021/10/08 03:26:44;;;;;;;5.30;4.80;;;7.20;99.90;;;;;;4859406;29;20239;-70
2021/10/08 03:29:10;;;;;;;7.32;4.97;;;7.10;99.90;;;;;;4860064;29;20268;-71
2021/10/08 03:31:37;;;;;;;6.30;4.70;;;7.20;99.90;;;;;;4860085;29;20627;-70
2021/10/08 03:34:04;;;;;;;5.78;5.13;;;7.20;99.90;;;;;;4876232;29;20227;-70
2021/10/08 03:36:38;;;;;;;5.88;5.32;;;7.10;99.90;;;;;;4878475;29;20211;-70
2021/10/08 03:39:07;;;;;;;6.03;5.43;;;7.10;99.90;;;;;;4879472;29;20242;-70
2021/10/08 03:41:35;;;;;;;7.88;5.50;;;7.10;99.90;;;;;;4878868;29;20582;-70
2021/10/08 03:44:03;;;;;;;6.43;5.72;;;7.10;99.90;;;;;;4878950;29;20227;-70
2021/10/08 03:46:37;;;;;;;6.25;5.38;;;7.10;99.90;;;;;;4878058;29;20231;-70
2021/10/08 03:51:48;;;;;;;6.38;5.72;;;7.10;99.90;;;;;;4880735;29;20210;-71
2021/10/08 03:54:19;;;;;;;6.72;5.50;;;7.10;99.90;;;;;;4880432;29;20234;-71
2021/10/08 03:56:46;;;;;;;7.35;5.38;;;7.10;99.90;;;;;;4880260;29;20211;-70
2021/10/08 03:59:13;;;;;;;6.72;6.03;;;7.10;99.90;;;;;;4879333;29;20470;-70
2021/10/08 04:01:40;;;;;;;9.00;5.85;;;7.10;99.90;;;;;;4877565;29;20212;-70
2021/10/08 04:04:09;;;;;;;7.70;5.30;;;7.00;99.90;;;;;;4872969;29;20242;-70
2021/10/08 04:06:37;;;;;;;6.45;5.85;;;7.00;99.90;;;;;;4867801;29;20626;-69
2021/10/08 04:09:06;;;;;;;8.40;6.47;;;7.00;99.90;;;;;;4878394;29;20714;-70
2021/10/08 04:11:34;;;;;;;8.40;6.20;;;7.00;99.90;;;;;;4877426;29;20218;-70
2021/10/08 04:14:01;;;;;;;7.15;5.97;;;7.00;99.90;;;;;;4869865;29;20234;-69
2021/10/08 04:16:28;;;;;;;6.15;5.55;;;7.00;99.90;;;;;;4866670;29;20207;-70
2021/10/08 04:18:55;;;;;;;6.43;5.80;;;7.00;99.90;;;;;;4868351;29;20626;-70
2021/10/08 04:21:21;;;;;;;8.90;6.65;;;7.00;99.90;;;;;;4866971;29;20219;-70
2021/10/08 04:23:48;;;;;;;7.03;6.43;;;7.00;99.90;;;;;;4867198;29;20211;-70
2021/10/08 04:26:15;;;;;;;7.00;6.30;;;7.00;99.90;;;;;;4867142;29;20250;-71
2021/10/08 04:28:43;;;;;;;6.72;6.03;;;7.00;99.90;;;;;;4868999;29;20206;-71
2021/10/08 04:31:10;;;;;;;6.72;5.60;;;7.00;99.90;;;;;;4877057;29;20285;-70
2021/10/08 04:33:36;;;;;;;6.85;6.00;;;7.00;99.90;;;;;;4877165;29;20207;-71
2021/10/08 04:36:03;;;;;;;8.63;6.57;;;7.00;99.90;;;;;;4875901;29;20223;-71
2021/10/08 04:38:31;;;;;;;6.60;6.00;;;7.10;99.90;;;;;;4876168;29;20225;-71
2021/10/08 04:40:59;;;;;;;8.15;5.95;;;7.00;99.90;;;;;;4877183;29;20218;-71
2021/10/08 04:43:26;;;;;;;7.80;6.82;;;7.00;99.90;;;;;;4876919;29;20222;-70
2021/10/08 04:45:54;;;;;;;7.70;6.18;;;7.00;99.90;;;;;;4876575;29;20231;-70
2021/10/08 04:48:21;;;;;;;7.30;6.30;;;7.00;99.90;;;;;;4877191;29;20288;-70
2021/10/08 04:50:47;;;;;;;10.70;7.13;;;7.00;99.90;;;;;;4876982;29;20686;-71
2021/10/08 04:53:16;;;;;;;8.05;6.53;;;6.90;99.90;;;;;;4877055;29;20215;-71
2021/10/08 04:55:43;;;;;;;7.38;6.50;;;6.90;99.90;;;;;;4877299;29;20230;-72
2021/10/08 04:58:10;;;;;;;8.82;6.43;;;6.90;99.90;;;;;;4876970;29;20207;-71
2021/10/08 05:00:38;;;;;;;14.13;6.18;;;6.90;99.90;;;;;;4876991;29;20679;-71
2021/10/08 05:03:10;;;;;;;7.65;6.85;;;6.90;99.90;;;;;;4877050;29;20210;-71
2021/10/08 05:05:37;;;;;;;8.23;6.93;;;6.90;99.90;;;;;;4876710;29;20601;-71
2021/10/08 05:08:05;;;;;;;7.57;6.78;;;6.90;99.90;;;;;;4876436;29;20207;-71
2021/10/08 05:10:32;;;;;;;8.50;7.07;;;6.90;99.90;;;;;;4876783;29;20211;-71
2021/10/08 05:13:00;;;;;;;7.47;6.75;;;6.90;99.90;;;;;;4876917;29;20211;-71
2021/10/08 05:15:26;;;;;;;7.30;6.55;;;6.90;99.90;;;;;;4876497;29;20235;-71
2021/10/08 05:17:53;;;;;;;8.40;6.85;;;6.90;99.90;;;;;;4876471;29;20211;-71
2021/10/08 05:20:21;;;;;;;11.32;6.90;;;6.80;99.90;;;;;;4876667;29;20215;-71
2021/10/08 05:22:48;;;;;;;7.15;6.25;;;6.80;99.90;;;;;;4876853;29;20207;-71
2021/10/08 05:25:15;;;;;;;9.65;7.57;;;6.80;99.90;;;;;;4876363;29;20231;-71
2021/10/08 05:27:42;;;;;;;8.02;7.22;;;6.80;99.90;;;;;;4878211;29;20215;-71
2021/10/08 05:30:10;;;;;;;7.88;7.07;;;6.80;99.90;;;;;;4880383;29;20207;-71
2021/10/08 05:32:37;;;;;;;8.82;7.53;;;6.80;99.90;;;;;;4880312;29;20218;-71
2021/10/08 05:35:04;;;;;;;7.53;6.75;;;6.80;99.90;;;;;;4880420;29;20242;-70
2021/10/08 05:37:32;;;;;;;9.25;6.95;;;6.80;99.90;;;;;;4879673;29;20203;-71
2021/10/08 05:39:58;;;;;;;7.82;7.10;;;6.70;99.90;;;;;;4880425;29;20211;-70
2021/10/08 05:42:25;;;;;;;8.73;7.68;;;6.70;99.90;;;;;;4880066;29;20703;-71
2021/10/08 05:44:52;;;;;;;10.77;8.48;;;6.70;99.90;;;;;;4880025;29;20233;-71
2021/10/08 05:47:19;;;;;;;10.93;7.70;;;6.70;99.90;;;;;;4945059;23;20238;-75
2021/10/08 05:49:45;;;;;;;9.13;7.65;;;6.70;99.90;;;;;;4880056;29;20236;-73
2021/10/08 05:52:12;;;;;;;8.80;7.90;;;6.80;99.90;;;;;;4879689;29;20207;-73
2021/10/08 05:54:41;;;;;;;9.45;7.80;;;6.80;99.90;;;;;;4879802;29;20238;-73
2021/10/08 05:57:08;;;;;;;8.18;7.35;;;6.80;99.90;;;;;;4879230;29;20207;-74
2021/10/08 05:59:35;;;;;;;8.40;7.60;;;6.80;99.90;;;;;;4878978;29;20211;-72
2021/10/08 06:02:01;;;;;;;10.23;8.65;;;6.80;99.90;;;;;;4879800;29;20211;-73
2021/10/08 06:04:28;;;;;;;8.82;7.80;;;6.80;99.90;;;;;;4879603;29;20582;-73
2021/10/08 06:06:55;;;;;;;10.40;8.27;;;6.80;99.90;;;;;;4879191;29;20234;-72
2021/10/08 06:09:22;;;;;;;9.48;8.52;;;6.80;99.90;;;;;;4879698;29;20218;-73
2021/10/08 06:11:50;;;;;;;10.43;8.52;;;6.90;99.90;;;;;;4879749;29;20622;-72
2021/10/08 06:14:17;;;;;;;8.38;7.50;;;6.90;99.90;;;;;;4879375;29;20422;-73
2021/10/08 06:16:43;;;;;;;9.50;7.35;;;6.90;99.90;;;;;;4879309;29;20280;-76
2021/10/08 06:19:10;;;;;;;9.05;8.15;;;7.00;99.90;;;;;;4879405;29;20211;-73
2021/10/08 06:21:37;;;;;;;10.25;8.45;;;7.00;99.90;;;;;;4879495;29;20706;-73
2021/10/08 06:24:04;;;;;;;8.60;7.70;;;7.00;99.90;;;;;;4879327;29;20249;-73
2021/10/08 06:26:30;;;;;;;9.93;7.68;;;7.10;99.90;;;;;;4878791;29;20226;-72
2021/10/08 06:28:58;;;;;;;9.80;7.60;;;7.10;99.90;;;;;;4879334;29;20589;-74
2021/10/08 06:31:25;;;;;;;13.93;9.32;;;7.20;99.90;;;;;;4879255;29;20214;-73
2021/10/08 06:33:52;;;;;;;9.93;8.20;;;7.20;99.90;;;;;;4879020;29;20215;-73
2021/10/08 06:36:18;;;;;;;9.73;8.60;;;7.20;99.90;;;;;;4878497;29;20207;-73
2021/10/08 06:38:45;;;;;;;10.10;8.15;;;7.30;99.90;;;;;;4878024;29;20214;-72
2021/10/08 06:41:12;;;;;;;8.90;8.10;;;7.40;99.90;;;;;;4878885;29;20214;-73
2021/10/08 06:43:39;;;;;;;9.68;8.43;;;7.50;99.90;;;;;;4879090;29;20211;-73
2021/10/08 06:46:07;;;;;;;8.88;8.07;;;7.60;99.90;;;;;;4878352;29;20231;-73
2021/10/08 06:48:34;;;;;;;10.75;8.75;;;7.90;99.90;;;;;;4878915;29;20218;-72
2021/10/08 06:51:01;;;;;;;9.52;8.30;;;8.10;99.90;;;;;;4878994;29;20679;-73
2021/10/08 06:53:27;;;;;;;10.82;8.88;;;8.40;99.90;;;;;;4878442;29;20222;-73
2021/10/08 06:55:54;;;;;;;11.65;8.98;;;8.60;99.90;;;;;;4877577;29;20224;-73
2021/10/08 06:58:21;;;;;;;10.57;8.20;;;8.80;99.90;;;;;;4878463;29;20692;-72
2021/10/08 07:00:47;;;;;;;8.15;7.35;;;9.10;99.90;;;;;;4878638;29;20649;-73
2021/10/08 07:03:15;;;;;;;10.00;8.18;;;9.20;99.90;;;;;;4876899;29;20203;-73
2021/10/08 07:05:42;;;;;;;11.40;8.45;;;9.40;99.90;;;;;;4878667;29;20279;-73
2021/10/08 07:08:09;;;;;;;8.82;7.93;;;9.50;99.90;;;;;;4878768;29;20207;-73
2021/10/08 07:10:37;;;;;;;10.80;8.40;;;9.70;99.90;;;;;;4878926;29;20218;-71
2021/10/08 07:13:04;;;;;;;13.50;8.70;;;9.70;99.90;;;;;;4878721;29;20213;-73
2021/10/08 07:15:31;;;;;;;10.02;8.95;;;9.80;99.90;;;;;;4878571;29;20584;-73
2021/10/08 07:17:58;;;;;;;9.18;7.68;;;9.80;99.90;;;;;;4878264;29;20603;-73
2021/10/08 07:20:28;;;;;;;9.93;8.93;;;9.70;99.90;;;;;;4878488;29;20584;-73
2021/10/08 07:22:57;;;;;;;9.68;8.38;;;9.80;99.90;;;;;;4878498;29;20214;-73
2021/10/08 07:25:25;;;;;;;10.93;9.82;;;9.90;99.90;;;;;;4878272;29;20238;-73
2021/10/08 07:27:52;;;;;;;10.73;8.57;;;10.00;99.90;;;;;;4877938;29;20227;-72
2021/10/08 07:30:19;;;;;;;9.40;7.93;;;10.20;99.90;;;;;;4872081;29;20204;-73
2021/10/08 07:32:47;;;;;;;8.68;7.78;;;10.40;99.90;;;;;;4875045;29;20242;-73
2021/10/08 07:35:14;;;;;;;10.95;8.75;;;10.50;99.90;;;;;;4867352;29;20219;-72
2021/10/08 07:37:43;;;;;;;9.45;8.55;;;10.50;99.90;;;;;;4868998;29;20563;-73
2021/10/08 07:40:12;;;;;;;10.90;8.82;;;10.50;99.90;;;;;;4869129;29;20199;-72
2021/10/08 07:42:38;;;;;;;12.18;9.60;;;10.40;99.90;;;;;;4872111;29;20203;-73
2021/10/08 07:45:07;;;;;;;9.45;8.30;;;10.40;99.90;;;;;;4866624;29;20223;-72
2021/10/08 07:47:34;;;;;;;9.90;9.00;;;10.50;99.90;;;;;;4863502;29;20230;-73
2021/10/08 07:50:01;;;;;;;12.05;9.70;;;10.60;99.90;;;;;;4873797;29;20207;-72
2021/10/08 07:52:27;;;;;;;9.95;9.02;;;10.90;99.90;;;;;;4877844;29;20218;-73
2021/10/08 07:54:55;;;;;;;11.80;9.40;;;11.30;99.90;;;;;;4877895;29;20584;-72
2021/10/08 07:57:22;;;;;;;10.18;9.10;;;11.60;99.90;;;;;;4877342;29;20211;-73
2021/10/08 07:59:49;;;;;;;9.25;8.35;;;11.90;99.90;;;;;;4877832;29;20222;-71
2021/10/08 08:02:16;;;;;;;9.90;8.73;;;12.30;99.90;;;;;;4877522;29;20263;-73
2021/10/08 08:04:42;;;;;;;8.38;7.60;;;12.50;99.90;;;;;;4878048;29;20770;-72
2021/10/08 08:07:09;;;;;;;8.02;7.30;;;12.80;99.90;;;;;;4877105;29;20744;-72
2021/10/08 08:09:36;;;;;;;7.35;6.45;;;13.00;99.90;;;;;;4878101;29;20214;-72
2021/10/08 08:12:04;;;;;;;7.00;6.32;;;13.30;99.90;;;;;;4877722;29;20211;-73
2021/10/08 08:14:31;;;;;;;7.95;7.25;;;13.50;99.90;;;;;;4877716;29;20231;-73
2021/10/08 08:16:57;;;;;;;10.70;7.40;;;13.70;99.90;;;;;;4877238;29;20683;-74
2021/10/08 08:19:24;;;;;;;7.93;7.13;;;14.00;99.90;;;;;;4877607;29;20479;-74
2021/10/08 08:21:51;;;;;;;8.13;7.33;;;14.10;99.90;;;;;;4877617;29;20623;-74
2021/10/08 08:24:18;;;;;;;8.57;7.30;;;14.20;99.90;;;;;;4877441;29;20487;-73
2021/10/08 08:26:44;;;;;;;7.87;7.07;;;14.40;99.90;;;;;;4877159;29;21031;-73
2021/10/08 08:29:12;;;;;;;11.70;7.80;;;14.50;99.90;;;;;;4877375;29;20471;-72
2021/10/08 08:31:41;;;;;;;9.50;7.50;;;14.60;99.90;;;;;;4877354;29;20987;-73
2021/10/08 08:34:07;;;;;;;9.73;7.00;;;14.60;99.90;;;;;;4876803;29;20560;-71
2021/10/08 08:36:34;;;;;;;6.87;6.27;;;14.70;99.90;;;;;;4876696;29;20835;-74
2021/10/08 08:39:04;;;;;;;8.23;7.40;;;14.80;99.90;;;;;;4875504;29;20480;-74
2021/10/08 08:41:31;;;;;;;7.30;6.60;;;14.90;99.90;;;;;;4868915;29;20468;-74
2021/10/08 08:43:58;;;;;;;7.67;6.87;;;14.90;99.90;;;;;;4873024;29;20472;-73
2021/10/08 08:46:26;;;;;;;10.77;7.57;;;14.70;99.90;;;;;;4875756;29;20487;-75
2021/10/08 08:48:53;;;;;;;10.27;7.10;;;14.60;99.90;;;;;;4876406;29;20479;-73
2021/10/08 08:51:25;;;;;;;7.40;6.70;;;14.50;99.90;;;;;;4876127;29;20540;-73
2021/10/08 08:53:52;;;;;;;8.10;7.40;;;14.50;99.90;;;;;;4874860;29;20468;-73
2021/10/08 08:56:20;;;;;;;7.90;7.20;;;14.50;99.90;;;;;;4875555;29;20570;-73
2021/10/08 08:58:47;;;;;;;7.37;6.57;;;14.60;99.90;;;;;;4875906;29;20467;-73
2021/10/08 09:01:15;;;;;;;8.97;8.07;;;14.60;99.90;;;;;;4874993;29;20524;-72
2021/10/08 09:04:04;;;;;;;9.77;7.70;;;14.40;99.90;;;;;;4875443;29;20869;-73
2021/10/08 09:06:34;;;;;;;7.43;6.73;;;14.30;99.90;;;;;;4875575;29;20557;-72
2021/10/08 09:09:16;;;;;;;9.20;7.63;;;14.30;99.90;;;;;;4870020;29;20468;-73
2021/10/08 09:11:43;;;;;;;8.37;7.53;;;14.20;99.90;;;;;;4876087;29;20880;-73
2021/10/08 09:14:20;;;;;;;7.63;6.77;;;13.80;99.90;;;;;;4875715;29;20578;-73
2021/10/08 09:17:08;;;;;;;9.10;7.33;;;13.60;99.90;;;;;;4875194;29;20476;-72
2021/10/08 09:19:54;;;;;;;10.40;6.93;;;13.50;99.90;;;;;;4875771;29;20463;-73
2021/10/08 09:22:24;;;;;;;9.67;8.20;;;13.40;99.90;;;;;;4875820;29;20475;-72
2021/10/08 09:24:51;;;;;;;7.47;6.77;;;13.30;99.90;;;;;;4875884;29;20488;-73
2021/10/08 09:27:20;;;;;;;9.83;8.20;;;13.20;99.90;;;;;;4875645;29;20491;-73
2021/10/08 09:29:49;;;;;;;8.90;8.02;;;13.10;99.90;;;;;;4875757;29;20909;-71
2021/10/08 09:32:17;;;;;;;8.85;7.72;;;13.10;99.90;;;;;;4876139;29;20214;-73
2021/10/08 09:34:44;;;;;;;8.98;7.05;;;13.10;99.90;;;;;;4875923;29;20238;-73
2021/10/08 09:37:14;;;;;;;8.98;8.07;;;13.00;99.90;;;;;;4875230;29;20207;-73
2021/10/08 09:39:41;;;;;;;9.55;8.55;;;13.10;99.90;;;;;;4875372;29;20211;-72
2021/10/08 09:42:11;;;;;;;9.35;8.45;;;13.10;99.90;;;;;;4875694;29;20215;-72
2021/10/08 09:44:43;;;;;;;9.40;8.40;;;13.10;99.90;;;;;;4875186;29;20897;-73
2021/10/08 09:47:12;;;;;;;8.98;7.78;;;13.10;99.90;;;;;;4874757;29;20302;-73
2021/10/08 09:49:39;;;;;;;10.10;9.00;;;13.00;99.90;;;;;;4875880;29;20219;-71
2021/10/08 09:52:25;;;;;;;9.80;8.80;;;13.00;99.90;;;;;;4875783;29;20215;-73
2021/10/08 09:54:53;;;;;;;9.80;8.80;;;13.00;99.90;;;;;;4875580;29;20230;-73
2021/10/08 09:57:21;;;;;;;9.13;8.23;;;13.00;99.90;;;;;;4874582;29;20210;-73
2021/10/08 09:59:49;;;;;;;10.90;8.50;;;12.90;99.90;;;;;;4875643;29;20567;-74
2021/10/08 10:02:16;;;;;;;9.50;8.32;;;12.90;99.90;;;;;;4874871;29;20467;-73
2021/10/08 10:04:48;;;;;;;10.93;8.95;;;12.90;99.90;;;;;;4875772;29;20234;-72
2021/10/08 10:07:18;;;;;;;12.07;10.30;;;12.90;99.90;;;;;;4868647;29;20215;-73
2021/10/08 10:09:47;;;;;;;10.82;9.18;;;12.90;99.90;;;;;;4873430;29;20463;-72
2021/10/08 10:12:15;;;;;;;9.98;8.98;;;12.90;99.90;;;;;;4875130;29;20616;-73
2021/10/08 10:14:44;;;;;;;9.23;7.63;;;12.80;99.90;;;;;;4878123;29;20283;-73
2021/10/08 10:17:12;;;;;;;11.75;8.57;;;12.80;99.90;;;;;;4878025;29;20491;-74
2021/10/08 10:19:43;;;;;;;9.85;8.85;;;12.70;99.90;;;;;;4878627;29;20698;-73
2021/10/08 10:22:14;;;;;;;9.38;8.48;;;12.70;99.90;;;;;;4878505;29;20218;-73
2021/10/08 10:24:42;;;;;;;9.50;8.38;;;12.70;99.90;;;;;;4876421;29;20764;-72
2021/10/08 10:27:11;;;;;;;12.00;8.50;;;12.70;99.90;;;;;;4877021;29;20286;-70
2021/10/08 10:29:38;;;;;;;9.10;8.15;;;12.70;99.90;;;;;;4878569;29;20471;-73
2021/10/08 10:32:06;;;;;;;9.30;8.35;;;12.80;99.90;;;;;;4878162;29;20305;-73
2021/10/08 10:34:35;;;;;;;9.40;8.33;;;12.90;99.90;;;;;;4877402;29;20263;-73
2021/10/08 10:37:02;;;;;;;8.60;7.77;;;13.00;99.90;;;;;;4877973;29;20825;-73
2021/10/08 10:39:29;;;;;;;9.40;8.40;;;13.00;99.90;;;;;;4877659;29;21067;-73
2021/10/08 10:42:16;;;;;;;8.80;7.80;;;13.10;99.90;;;;;;4878271;29;20471;-73
2021/10/08 10:45:11;;;;;;;12.40;9.30;;;13.20;99.90;;;;;;4877771;29;20733;-73
2021/10/08 10:47:39;;;;;;;8.90;8.00;;;13.20;99.90;;;;;;4877439;29;20499;-73
2021/10/08 10:50:16;;;;;;;9.93;8.40;;;13.20;99.90;;;;;;4878335;29;20219;-74
2021/10/08 10:52:51;;;;;;;8.93;8.02;;;13.20;99.90;;;;;;4877606;29;20466;-74
2021/10/08 10:55:20;;;;;;;9.33;8.33;;;13.20;99.90;;;;;;4877242;29;20246;-74
2021/10/08 10:58:10;;;;;;;10.07;8.50;;;13.20;99.90;;;;;;4877163;29;20459;-74
2021/10/08 11:00:46;;;;;;;9.32;7.80;;;13.20;99.90;;;;;;4878148;29;20214;-74
2021/10/08 11:03:16;;;;;;;8.30;7.50;;;13.20;99.90;;;;;;4877656;29;20210;-71
2021/10/08 11:06:07;;;;;;;10.17;9.13;;;13.30;99.90;;;;;;4876977;29;20227;-73
2021/10/08 11:08:34;;;;;;;10.90;8.18;;;13.30;99.90;;;;;;4877486;29;20590;-72
2021/10/08 11:11:20;;;;;;;8.70;7.90;;;13.30;99.90;;;;;;4874626;29;20214;-73
2021/10/08 11:13:49;;;;;;;8.70;7.70;;;13.30;99.90;;;;;;4877188;29;20475;-74
2021/10/08 11:16:30;;;;;;;9.37;8.37;;;13.40;99.90;;;;;;4876461;29;20531;-74
2021/10/08 11:18:56;;;;;;;11.93;8.87;;;13.40;99.90;;;;;;4877435;29;20490;-74
2021/10/08 11:21:50;;;;;;;9.40;8.00;;;13.30;99.90;;;;;;4877165;29;20971;-73
2021/10/08 11:24:20;;;;;;;12.75;8.80;;;13.30;99.90;;;;;;4876775;29;20865;-73
2021/10/08 11:26:56;;;;;;;12.70;10.30;;;13.30;99.90;;;;;;4876870;29;20234;-74
2021/10/08 11:29:26;;;;;;;11.15;8.93;;;13.20;99.90;;;;;;4858449;29;20723;-73
2021/10/08 11:32:05;;;;;;;10.38;8.00;;;13.20;99.90;;;;;;4864243;29;20207;-74
2021/10/08 11:34:32;;;;;;;9.00;8.10;;;13.20;99.90;;;;;;4871068;29;20656;-73
2021/10/08 11:37:01;;;;;;;9.43;8.50;;;13.20;99.90;;;;;;4875670;29;20885;-73
2021/10/08 11:39:28;;;;;;;9.80;8.63;;;13.20;99.90;;;;;;4862299;29;20578;-74
2021/10/08 11:42:01;;;;;;;10.07;7.90;;;13.30;99.90;;;;;;4865553;29;20467;-74
2021/10/08 11:44:31;;;;;;;10.05;8.85;;;13.30;99.90;;;;;;4874117;29;20235;-74
2021/10/08 11:47:18;;;;;;;10.93;9.50;;;13.30;99.90;;;;;;4864320;29;20239;-74
2021/10/08 11:50:00;;;;;;;10.27;8.67;;;13.20;99.90;;;;;;4857563;29;20472;-74
2021/10/08 11:52:32;;;;;;;9.48;8.48;;;13.20;99.90;;;;;;4856345;29;20479;-74
2021/10/08 11:55:07;;;;;;;9.77;8.35;;;13.20;99.90;;;;;;4856159;29;20242;-73
2021/10/08 11:57:50;;;;;;;10.17;8.70;;;13.20;99.90;;;;;;4868935;29;20694;-74
2021/10/08 12:00:18;;;;;;;10.82;8.77;;;13.10;99.90;;;;;;4857847;29;20477;-74
2021/10/08 12:02:59;;;;;;;10.85;8.00;;;13.10;99.90;;;;;;4857583;29;20207;-74
2021/10/08 12:05:25;;;;;;;9.97;7.97;;;13.10;99.90;;;;;;4874100;29;20258;-73
2021/10/08 12:08:00;;;;;;;10.25;8.52;;;13.00;99.90;;;;;;4856907;29;21011;-72
2021/10/08 12:10:27;;;;;;;9.07;7.85;;;13.10;99.90;;;;;;4867770;29;20624;-74
2021/10/08 12:12:57;;;;;;;9.85;7.85;;;13.10;99.90;;;;;;4876093;29;20210;-74
2021/10/08 12:15:27;;;;;;;14.35;8.70;;;13.10;99.90;;;;;;4875120;29;20319;-73
2021/10/08 12:17:55;;;;;;;9.53;8.07;;;13.10;99.90;;;;;;4875496;29;20683;-74
2021/10/08 12:20:25;;;;;;;9.57;8.57;;;13.10;99.90;;;;;;4875713;29;20487;-74
2021/10/08 12:23:15;;;;;;;10.48;8.35;;;13.20;99.90;;;;;;4873610;29;20468;-74
2021/10/08 12:25:43;;;;;;;10.17;8.30;;;13.20;99.90;;;;;;4875628;29;20307;-74
2021/10/08 12:28:11;;;;;;;11.03;8.30;;;13.30;99.90;;;;;;4875310;29;20502;-73
2021/10/08 12:30:52;;;;;;;10.80;8.00;;;13.40;99.90;;;;;;4875313;29;20472;-72
2021/10/08 12:33:24;;;;;;;10.50;9.05;;;13.40;99.90;;;;;;4875525;29;20471;-74
2021/10/08 12:36:13;;;;;;;8.98;7.82;;;13.40;99.90;;;;;;4875570;29;20231;-74
2021/10/08 12:38:55;;;;;;;9.18;7.80;;;13.40;99.90;;;;;;4874653;29;20214;-71
2021/10/08 12:41:24;;;;;;;10.93;9.10;;;13.40;99.90;;;;;;4848664;29;20199;-72
2021/10/08 12:44:03;;;;;;;8.20;7.40;;;13.40;99.90;;;;;;4849796;29;20476;-74
2021/10/08 12:46:34;;;;;;;8.93;7.97;;;13.30;99.90;;;;;;4859261;29;21025;-74
2021/10/08 12:49:01;;;;;;;10.47;7.60;;;13.30;99.90;;;;;;4866673;29;20491;-74
2021/10/08 12:51:28;;;;;;;10.83;9.00;;;13.40;99.90;;;;;;4875465;29;20475;-75
2021/10/08 12:54:15;;;;;;;9.20;7.27;;;13.40;99.90;;;;;;4853970;29;20479;-72
2021/10/08 12:56:41;;;;;;;9.43;8.37;;;13.40;99.90;;;;;;4873776;29;20463;-74
2021/10/08 12:59:08;;;;;;;13.00;8.30;;;13.50;99.90;;;;;;4865127;29;20491;-74
2021/10/08 13:01:36;;;;;;;9.00;8.07;;;13.50;99.90;;;;;;4857809;29;20832;-74